Time;durP1;ratioP1;P1;durP2;ratioP2;P2;SDS_P1;SDS_P2;PMS_P1;PMS_P2;Temp;Humidity;BMP_temperature;BMP_pressure;BME280_temperature;BME280_humidity;BME280_pressure;Samples;Min_cycle;Max_cycle;Signal;HPM_P1;HPM_P2
2022/01/16 00:01:47;;;;;;;131.85;60.65;;;6.60;99.90;;;6.74;95.47;102210.03;5072243;28;20118;-61
2022/01/16 00:04:15;;;;;;;133.35;61.75;;;6.60;99.90;;;6.75;95.86;102211.81;5075231;28;20056;-61
2022/01/16 00:06:46;;;;;;;139.27;62.88;;;6.60;99.90;;;6.77;96.06;102199.63;5074898;28;20486;-60
2022/01/16 00:09:15;;;;;;;148.45;65.93;;;6.60;99.90;;;6.62;96.93;102209.66;5074745;28;20056;-60
2022/01/16 00:11:44;;;;;;;149.95;63.53;;;6.50;99.90;;;6.57;97.63;102208.59;5074758;28;20138;-61
2022/01/16 00:14:13;;;;;;;157.07;66.13;;;6.40;99.90;;;6.52;97.86;102211.09;5075242;28;20122;-62
2022/01/16 00:16:42;;;;;;;156.52;68.07;;;6.40;99.90;;;6.53;98.33;102220.75;5074898;28;20048;-60
2022/01/16 00:19:10;;;;;;;152.55;63.72;;;6.40;99.90;;;6.54;98.58;102200.63;5074737;28;20099;-61
2022/01/16 00:21:41;;;;;;;150.32;65.35;;;6.30;99.90;;;6.62;98.59;102197.38;5074448;28;20049;-62
2022/01/16 00:24:12;;;;;;;157.82;66.43;;;6.40;99.90;;;6.40;98.51;102166.00;5074474;28;20112;-60
2022/01/16 00:26:41;;;;;;;155.48;67.82;;;6.40;99.90;;;6.55;98.72;102186.59;5074671;28;20079;-61
2022/01/16 00:29:12;;;;;;;180.77;69.38;;;6.30;99.90;;;6.36;98.64;102161.47;5074558;28;20052;-61
2022/01/16 00:31:42;;;;;;;169.80;68.43;;;6.30;99.90;;;6.48;99.14;102189.91;5074760;28;20439;-60
2022/01/16 00:34:12;;;;;;;169.40;69.30;;;6.40;99.90;;;6.01;99.12;102127.88;5074582;28;20056;-60
2022/01/16 00:36:40;;;;;;;163.77;68.73;;;6.30;99.90;;;6.33;99.36;102199.03;5074599;28;20131;-60
2022/01/16 00:39:09;;;;;;;168.95;69.53;;;6.20;99.90;;;6.39;99.64;102196.63;5074400;28;20444;-60
2022/01/16 00:41:38;;;;;;;154.88;67.75;;;6.20;99.90;;;6.41;99.65;102199.28;5074429;28;20128;-60
2022/01/16 00:44:06;;;;;;;162.48;67.82;;;6.20;99.90;;;6.38;99.58;102196.56;5074377;28;20049;-60
2022/01/16 00:46:36;;;;;;;156.57;68.38;;;6.20;99.90;;;6.42;99.71;102201.09;5074030;28;20412;-61
2022/01/16 00:49:05;;;;;;;147.80;67.22;;;6.20;99.90;;;6.38;99.71;102202.72;5074342;28;20071;-60
2022/01/16 00:51:33;;;;;;;154.73;66.75;;;6.20;99.90;;;6.36;99.54;102193.91;5073844;28;20091;-61
2022/01/16 00:54:01;;;;;;;150.77;67.00;;;6.20;99.90;;;6.38;99.48;102167.66;5073967;28;20054;-60
2022/01/16 00:56:30;;;;;;;133.55;64.55;;;6.20;99.90;;;6.40;99.86;102168.63;5073975;28;20058;-60
2022/01/16 00:58:58;;;;;;;149.43;65.38;;;6.20;99.90;;;6.33;99.44;102179.75;5074263;28;20347;-60
2022/01/16 01:01:27;;;;;;;140.60;64.50;;;6.20;99.90;;;6.34;99.71;102150.91;5074102;28;20048;-60
2022/01/16 01:03:57;;;;;;;146.90;64.90;;;6.20;99.90;;;6.41;99.82;102141.47;5074178;28;20097;-60
2022/01/16 01:06:26;;;;;;;141.95;66.57;;;6.20;99.90;;;6.43;99.50;102154.69;5074430;28;20044;-60
2022/01/16 01:08:54;;;;;;;143.73;66.75;;;6.20;99.90;;;6.38;99.16;102160.69;5073853;28;20143;-60
2022/01/16 01:11:27;;;;;;;139.60;66.30;;;6.20;99.90;;;6.37;99.45;102156.25;5073953;28;20065;-60
2022/01/16 01:13:57;;;;;;;139.65;64.38;;;6.20;99.90;;;6.39;99.42;102158.94;5072878;28;20090;-61
2022/01/16 01:16:35;;;;;;;138.88;65.90;;;6.20;99.90;;;6.44;99.50;102177.50;5073861;28;20072;-60
2022/01/16 01:19:05;;;;;;;140.18;64.35;;;6.30;99.90;;;6.43;99.21;102167.84;5072384;28;20053;-60
2022/01/16 01:21:33;;;;;;;133.43;62.03;;;6.30;99.90;;;6.43;99.33;102183.59;5074177;28;20111;-60
2022/01/16 01:24:02;;;;;;;129.20;61.97;;;6.20;99.90;;;6.48;99.21;102159.25;5073378;28;20080;-60
2022/01/16 01:26:36;;;;;;;123.30;61.00;;;6.30;99.90;;;6.48;98.72;102166.25;5073440;28;20098;-60
2022/01/16 01:29:05;;;;;;;125.18;61.83;;;6.30;99.90;;;6.52;98.43;102170.75;5073409;28;20079;-60
2022/01/16 01:31:34;;;;;;;120.28;59.50;;;6.40;99.90;;;6.54;98.31;102190.09;5073289;28;20123;-60
2022/01/16 01:34:03;;;;;;;117.03;59.90;;;6.40;99.90;;;6.50;98.06;102186.47;5073776;28;20045;-60
2022/01/16 01:36:32;;;;;;;106.40;55.20;;;6.40;99.90;;;6.37;98.05;102187.78;5073251;28;20080;-60
2022/01/16 01:39:00;;;;;;;112.18;57.53;;;6.30;99.90;;;6.28;98.44;102152.44;5073037;28;20123;-60
2022/01/16 01:41:29;;;;;;;116.18;58.72;;;6.20;99.90;;;6.43;98.07;102131.91;5073022;28;20095;-60
2022/01/16 01:52:18;;;;;;;103.03;55.53;;;6.20;99.90;;;6.44;97.61;102110.06;5072796;28;20098;-60
2022/01/16 01:54:48;;;;;;;106.38;57.05;;;6.30;99.90;;;6.39;97.61;102128.28;5073254;28;20054;-60
2022/01/16 01:57:16;;;;;;;102.20;55.17;;;6.30;99.90;;;6.48;97.46;102154.00;5072762;28;20401;-60
2022/01/16 01:59:45;;;;;;;103.03;56.88;;;6.30;99.90;;;6.48;97.32;102158.34;5072923;28;20438;-60
2022/01/16 02:02:13;;;;;;;97.25;55.80;;;6.30;99.90;;;6.47;97.41;102175.84;5071619;28;20057;-60
2022/01/16 02:04:43;;;;;;;92.47;54.42;;;6.30;99.90;;;6.45;96.95;102164.38;5072627;28;20488;-60
2022/01/16 02:07:13;;;;;;;91.93;55.33;;;6.30;99.90;;;6.51;96.88;102184.72;5072572;28;20634;-60
2022/01/16 02:09:41;;;;;;;92.20;54.97;;;6.30;99.90;;;6.54;96.93;102182.22;5071129;28;20474;-61
2022/01/16 02:12:11;;;;;;;88.32;53.35;;;6.30;99.90;;;6.01;96.62;102118.25;5072461;28;20048;-60
2022/01/16 02:14:54;;;;;;;89.88;54.60;;;6.30;99.90;;;6.48;96.54;102187.25;5072711;28;20052;-60
2022/01/16 02:28:45;;;;;;;85.87;53.20;;;6.30;99.90;;;6.32;95.91;102178.88;5072308;28;20468;-61
2022/01/16 02:31:17;;;;;;;87.68;53.17;;;6.20;99.90;;;6.28;96.35;102184.88;5072818;28;20189;-60
2022/01/16 02:36:42;;;;;;;87.15;53.35;;;6.20;99.90;;;6.21;95.93;102180.22;5072608;28;20098;-60
2022/01/16 02:39:14;;;;;;;84.57;53.63;;;6.10;99.90;;;6.20;95.96;102159.16;5070902;28;20151;-60
2022/01/16 02:41:44;;;;;;;88.47;53.50;;;6.10;99.90;;;6.26;95.90;102189.19;5072010;28;20109;-60
2022/01/16 02:44:20;;;;;;;88.97;54.75;;;6.10;99.90;;;6.26;95.93;102176.03;5071962;28;20136;-60
2022/01/16 02:46:48;;;;;;;81.93;51.90;;;6.10;99.90;;;6.35;96.06;102181.59;5070491;28;20435;-60
2022/01/16 02:49:22;;;;;;;86.63;53.22;;;6.10;99.90;;;6.31;95.60;102170.91;5071762;28;20044;-60
2022/01/16 02:51:53;;;;;;;85.63;54.23;;;6.10;99.90;;;6.41;95.91;102166.88;5071900;28;20040;-60
2022/01/16 02:54:26;;;;;;;85.87;54.70;;;6.20;99.90;;;6.44;95.64;102161.72;5072112;28;20040;-60
2022/01/16 02:56:54;;;;;;;85.32;53.03;;;6.20;99.90;;;6.45;95.40;102167.03;5072031;28;20474;-60
2022/01/16 02:59:23;;;;;;;88.00;53.85;;;6.30;99.90;;;6.47;95.18;102164.44;5071368;28;20047;-60
2022/01/16 03:01:51;;;;;;;86.65;53.53;;;6.30;99.90;;;6.48;95.24;102153.09;5071856;28;20059;-60
2022/01/16 03:04:20;;;;;;;85.75;53.05;;;6.30;99.90;;;6.25;95.17;102107.69;5087373;28;20056;-60
2022/01/16 03:06:49;;;;;;;83.47;51.70;;;6.30;99.90;;;6.46;94.96;102139.00;5071619;28;20095;-60
2022/01/16 03:09:19;;;;;;;81.65;51.15;;;6.30;99.90;;;6.50;94.80;102140.91;5071498;28;20084;-60
2022/01/16 03:11:50;;;;;;;80.72;51.13;;;6.30;99.90;;;6.52;94.94;102145.38;5072061;28;20044;-60
2022/01/16 03:14:21;;;;;;;81.15;51.45;;;6.30;99.90;;;6.57;94.80;102132.34;5071428;28;20054;-60
2022/01/16 03:16:52;;;;;;;76.07;49.80;;;6.40;99.90;;;6.55;94.60;102129.69;5071710;28;20048;-60
2022/01/16 03:22:07;;;;;;;75.43;49.10;;;6.40;99.90;;;6.63;94.73;102116.78;5071595;28;20048;-60
2022/01/16 03:24:40;;;;;;;82.05;48.95;;;6.40;99.90;;;6.62;94.33;102107.13;5071332;28;20044;-60
2022/01/16 03:27:14;;;;;;;74.65;49.15;;;6.50;99.90;;;6.62;94.30;102104.50;5071439;28;20090;-60
2022/01/16 03:29:46;;;;;;;75.97;49.03;;;6.50;99.90;;;6.76;93.87;102118.94;5071655;28;20053;-61
2022/01/16 03:32:19;;;;;;;71.88;47.47;;;6.60;99.90;;;6.77;94.18;102119.00;5071349;28;20044;-60
2022/01/16 03:34:48;;;;;;;74.28;48.70;;;6.60;99.90;;;6.77;93.90;102105.88;5071325;28;20470;-60
2022/01/16 03:37:17;;;;;;;69.25;45.45;;;6.60;99.90;;;6.81;93.63;102109.47;5073452;28;20047;-60
2022/01/16 03:39:45;;;;;;;77.72;49.50;;;6.60;99.90;;;6.32;93.94;102030.84;5075584;28;20393;-60
2022/01/16 03:42:22;;;;;;;70.28;47.25;;;6.60;99.90;;;6.81;93.84;102118.25;5075602;28;20500;-60
2022/01/16 03:44:50;;;;;;;71.93;47.63;;;6.60;99.90;;;6.77;93.54;102091.81;5075749;28;20072;-60
2022/01/16 03:47:20;;;;;;;69.47;46.15;;;6.60;99.90;;;6.85;93.65;102106.97;5075297;28;20064;-60
2022/01/16 03:49:48;;;;;;;72.35;46.67;;;6.70;99.90;;;6.79;93.37;102098.03;5075550;28;20052;-60
2022/01/16 03:52:16;;;;;;;70.38;46.05;;;6.70;99.90;;;6.72;93.05;102081.16;5075551;28;20040;-60
2022/01/16 03:54:45;;;;;;;71.18;47.22;;;6.70;99.90;;;6.87;93.18;102105.28;5075474;28;20110;-60
2022/01/16 03:57:15;;;;;;;68.32;44.42;;;6.70;99.90;;;6.96;92.86;102110.84;5075157;28;20106;-60
2022/01/16 03:59:44;;;;;;;67.97;45.03;;;6.70;99.90;;;6.97;92.64;102104.72;5075409;28;20075;-60
2022/01/16 04:02:12;;;;;;;61.75;42.33;;;6.80;99.90;;;6.90;92.67;102108.00;5074184;28;20480;-60
2022/01/16 04:04:41;;;;;;;65.70;42.67;;;6.70;99.90;;;6.97;92.74;102109.06;5075827;28;20048;-60
2022/01/16 04:07:13;;;;;;;67.10;42.22;;;6.70;99.90;;;7.02;92.76;102108.38;5075767;28;20055;-60
2022/01/16 04:09:42;;;;;;;63.08;41.75;;;6.80;99.90;;;7.02;92.76;102110.13;5074884;28;20084;-60
2022/01/16 04:12:10;;;;;;;66.18;40.47;;;6.80;99.90;;;7.04;92.92;102101.44;5075097;28;20040;-60
2022/01/16 04:17:26;;;;;;;58.17;40.67;;;6.90;99.90;;;7.07;92.65;102100.63;5074747;28;20045;-60
2022/01/16 04:19:55;;;;;;;65.90;41.65;;;6.80;99.90;;;7.10;92.98;102100.72;5074549;28;20045;-60
2022/01/16 04:22:23;;;;;;;63.72;40.47;;;6.90;99.90;;;7.07;92.63;102104.16;5074925;28;20052;-60
2022/01/16 04:24:52;;;;;;;59.70;39.38;;;6.90;99.90;;;7.17;92.82;102107.94;5074585;28;20044;-60
2022/01/16 04:27:20;;;;;;;63.03;39.50;;;7.00;99.90;;;7.18;92.83;102115.00;5075059;28;20094;-60
2022/01/16 04:29:50;;;;;;;59.85;39.90;;;7.00;99.90;;;7.22;92.70;102111.56;5074749;28;20045;-60
2022/01/16 04:32:18;;;;;;;60.42;38.58;;;7.00;99.90;;;7.14;92.72;102110.50;5074317;28;20072;-61
2022/01/16 04:34:47;;;;;;;55.80;37.70;;;7.00;99.90;;;7.25;93.51;102114.31;5074385;28;20040;-60
2022/01/16 04:37:16;;;;;;;57.33;36.20;;;7.10;99.90;;;7.34;92.98;102105.81;5074165;28;20052;-60
2022/01/16 04:39:49;;;;;;;52.90;35.13;;;7.10;99.90;;;7.34;92.64;102096.16;5074391;28;20515;-60
2022/01/16 04:45:07;;;;;;;45.85;28.83;;;7.20;99.90;;;7.57;92.26;102097.69;5074117;28;20052;-60
2022/01/16 04:47:35;;;;;;;27.63;16.90;;;7.40;99.90;;;7.62;92.04;102097.81;5073971;28;20529;-61
2022/01/16 04:50:05;;;;;;;22.40;13.48;;;7.40;99.90;;;7.62;91.72;102090.81;5072823;28;20131;-60
2022/01/16 04:52:33;;;;;;;25.13;10.80;;;7.50;99.90;;;7.59;91.55;102072.28;5074007;28;20040;-60
2022/01/16 04:55:01;;;;;;;22.30;11.55;;;7.60;99.90;;;7.76;90.99;102092.03;5074520;28;20382;-60
2022/01/16 04:57:30;;;;;;;21.42;10.40;;;7.60;99.90;;;7.76;90.54;102097.31;5074129;28;20143;-60
2022/01/16 04:59:58;;;;;;;22.20;10.77;;;7.70;99.90;;;7.95;89.78;102104.88;5073790;28;20551;-60
2022/01/16 05:02:28;;;;;;;21.08;9.65;;;7.80;99.90;;;8.05;88.42;102106.00;5073875;28;20778;-60
2022/01/16 05:04:56;;;;;;;14.23;9.00;;;8.00;99.90;;;8.23;88.11;102107.34;5073780;28;20443;-61
2022/01/16 05:07:25;;;;;;;20.05;9.25;;;8.10;99.90;;;8.27;87.47;102100.44;5074019;28;20139;-60
2022/01/16 05:09:53;;;;;;;22.40;9.73;;;8.20;99.90;;;8.36;87.17;102108.59;5073920;28;20136;-60
2022/01/16 05:12:31;;;;;;;18.23;8.73;;;8.30;99.90;;;8.30;85.94;102107.53;5073667;28;20501;-60
2022/01/16 05:17:47;;;;;;;17.13;9.85;;;8.30;99.90;;;8.35;85.19;102105.88;5072340;28;20057;-60
2022/01/16 05:20:16;;;;;;;18.67;8.63;;;8.30;99.90;;;8.32;84.77;102114.63;5073560;28;20072;-60
2022/01/16 05:22:44;;;;;;;22.80;9.20;;;8.30;99.90;;;8.39;84.14;102105.09;5073693;28;20076;-60
2022/01/16 05:25:15;;;;;;;22.80;9.13;;;8.30;99.90;;;8.40;83.42;102102.50;5072510;28;20053;-61
2022/01/16 05:27:44;;;;;;;16.20;8.40;;;8.40;99.90;;;7.72;82.16;101989.25;5074260;28;20049;-61
2022/01/16 05:30:14;;;;;;;16.58;8.25;;;8.40;99.90;;;8.45;82.03;102100.00;5074015;28;20123;-60
2022/01/16 05:32:42;;;;;;;18.23;8.07;;;8.40;99.90;;;8.48;81.12;102102.72;5073309;28;20051;-61
2022/01/16 05:35:12;;;;;;;12.18;7.55;;;8.40;99.90;;;8.38;80.01;102106.84;5073287;28;20097;-61
2022/01/16 05:37:40;;;;;;;14.20;8.10;;;8.30;99.90;;;8.42;79.05;102099.94;5073460;28;20071;-61
2022/01/16 05:40:09;;;;;;;12.57;7.32;;;8.40;99.90;;;8.34;78.70;102106.75;5073297;28;20471;-60
2022/01/16 05:42:38;;;;;;;9.88;6.55;;;8.30;99.90;;;8.32;78.11;102100.56;5073095;28;20086;-60
2022/01/16 05:45:08;;;;;;;9.57;6.57;;;8.30;99.90;;;8.38;76.67;102113.88;5073023;28;20493;-60
2022/01/16 05:47:36;;;;;;;10.82;6.68;;;8.30;99.90;;;8.46;75.44;102113.19;5073623;28;20075;-61
2022/01/16 05:50:06;;;;;;;12.48;7.05;;;8.40;99.90;;;8.57;75.21;102124.03;5072970;28;20117;-60
2022/01/16 05:52:47;;;;;;;12.35;6.97;;;8.40;99.90;;;8.63;74.31;102126.81;5073021;28;20139;-61
2022/01/16 05:55:15;;;;;;;;;;;8.60;99.90;;;8.38;74.04;102100.72;5073244;28;20094;-61
2022/01/16 05:57:45;;;;;;;14.93;6.85;;;8.50;99.90;;;8.62;73.81;102123.25;5073255;28;19928;-61
2022/01/16 06:00:15;;;;;;;12.60;7.15;;;8.50;99.90;;;8.65;72.95;102114.53;5072768;28;20045;-61
2022/01/16 06:02:44;;;;;;;;;;;8.60;99.90;;;8.64;73.11;102118.03;5073148;28;20041;-60
2022/01/16 06:05:13;;;;;;;11.77;7.18;;;8.60;99.90;;;8.65;73.37;102117.19;5072579;28;19962;-61
2022/01/16 06:07:45;;;;;;;9.02;7.38;;;8.50;99.90;;;8.71;73.36;102120.84;5071591;28;20064;-61
2022/01/16 06:10:14;;;;;;;15.30;6.85;;;8.60;99.90;;;8.71;73.00;102119.97;5072782;28;20109;-61
2022/01/16 06:12:43;;;;;;;13.87;7.80;;;8.60;99.90;;;8.71;73.04;102118.19;5071288;28;20110;-61
2022/01/16 06:15:12;;;;;;;13.70;7.40;;;8.70;99.90;;;8.69;72.66;102113.75;5072331;28;20285;-61
2022/01/16 06:17:40;;;;;;;11.20;7.65;;;8.60;99.90;;;8.67;73.31;102113.69;5072225;28;20521;-61
2022/01/16 06:20:09;;;;;;;11.73;8.50;;;8.60;99.90;;;8.69;73.00;102113.75;5072245;28;20454;-61
2022/01/16 06:22:37;;;;;;;17.15;9.25;;;8.70;99.90;;;8.77;73.39;102134.16;5072491;28;20052;-60
2022/01/16 06:25:07;;;;;;;14.60;8.63;;;8.70;99.90;;;8.94;73.51;102132.78;5071341;28;20048;-61
2022/01/16 06:27:37;;;;;;;13.25;8.57;;;8.80;99.90;;;8.94;74.55;102129.28;5072441;28;20127;-61
2022/01/16 06:30:10;;;;;;;16.33;8.88;;;8.90;99.90;;;8.82;74.87;102137.81;5072321;28;20040;-61
2022/01/16 06:32:39;;;;;;;14.02;8.73;;;8.80;99.90;;;8.95;74.44;102137.22;5072519;28;20127;-63
2022/01/16 06:35:10;;;;;;;15.02;9.48;;;8.80;99.90;;;9.04;74.52;102139.16;5072132;28;20140;-61
2022/01/16 06:37:38;;;;;;;17.98;9.40;;;8.90;99.90;;;8.84;74.43;102132.56;5071992;28;20093;-61
2022/01/16 06:40:09;;;;;;;17.80;9.52;;;8.80;99.90;;;8.93;74.34;102135.41;5070894;28;20498;-61
2022/01/16 06:42:39;;;;;;;15.60;8.95;;;8.80;99.90;;;9.01;74.92;102145.28;5072077;28;20044;-63
2022/01/16 06:45:09;;;;;;;13.05;8.85;;;8.90;99.90;;;9.05;74.75;102146.25;5072673;28;20040;-61
2022/01/16 06:47:38;;;;;;;13.90;9.25;;;9.00;99.90;;;9.01;74.74;102139.13;5072714;28;20076;-61
2022/01/16 06:50:09;;;;;;;14.70;9.75;;;9.00;99.90;;;9.03;75.04;102150.59;5072346;28;20060;-61
2022/01/16 06:52:38;;;;;;;17.25;9.63;;;9.00;99.90;;;9.03;74.63;102163.78;5072271;28;20131;-61
2022/01/16 06:55:08;;;;;;;12.82;8.82;;;9.00;99.90;;;9.12;74.63;102169.28;5072091;28;20405;-61
2022/01/16 06:57:38;;;;;;;13.60;9.95;;;9.00;99.90;;;9.10;74.62;102176.25;5072102;28;20459;-61
2022/01/16 07:00:09;;;;;;;19.52;8.63;;;9.00;99.90;;;9.12;74.86;102182.47;5071858;28;20411;-62
2022/01/16 07:02:38;;;;;;;17.50;9.25;;;9.00;99.90;;;8.98;74.72;102158.41;5071694;28;20041;-61
2022/01/16 07:05:07;;;;;;;16.10;9.25;;;9.10;99.90;;;9.23;74.76;102180.97;5071600;28;20051;-64
2022/01/16 07:07:35;;;;;;;12.52;9.13;;;9.10;99.90;;;9.21;75.14;102184.44;5072162;28;20050;-61
2022/01/16 07:10:05;;;;;;;13.02;8.63;;;9.10;99.90;;;9.25;75.32;102189.81;5071965;28;20056;-61
2022/01/16 07:12:34;;;;;;;15.25;9.77;;;9.20;99.90;;;9.16;76.45;102197.50;5071303;28;20124;-61
2022/01/16 07:15:05;;;;;;;18.20;10.40;;;9.10;99.90;;;9.12;77.21;102200.06;5071550;28;20056;-61
2022/01/16 07:17:33;;;;;;;;;;;9.10;99.90;;;9.22;78.02;102202.94;5071919;28;20079;-61
2022/01/16 07:20:01;;;;;;;15.63;10.07;;;9.10;99.90;;;9.24;78.28;102201.22;5071430;28;19921;-61
2022/01/16 07:22:30;;;;;;;20.27;10.85;;;9.10;99.90;;;9.23;78.28;102214.41;5071561;28;20120;-61
2022/01/16 07:24:58;;;;;;;18.58;10.10;;;9.10;99.90;;;9.22;78.56;102225.78;5071653;28;20052;-61
2022/01/16 07:27:26;;;;;;;20.65;11.02;;;9.10;99.90;;;9.24;79.17;102226.72;5071282;28;20053;-61
2022/01/16 07:29:55;;;;;;;20.92;11.77;;;9.20;99.90;;;9.21;79.33;102222.28;5071257;28;20094;-61
2022/01/16 07:32:25;;;;;;;31.75;12.88;;;9.10;99.90;;;9.25;79.61;102221.50;5071279;28;20044;-61
2022/01/16 07:34:53;;;;;;;23.50;13.30;;;9.20;99.90;;;9.35;79.61;102219.97;5071907;28;20122;-61
2022/01/16 07:37:21;;;;;;;22.63;13.25;;;9.20;99.90;;;9.27;79.08;102206.56;5071180;28;20336;-61
2022/01/16 07:39:50;;;;;;;25.45;13.23;;;9.30;99.90;;;9.24;79.66;102238.19;5072020;28;20060;-61
2022/01/16 07:42:18;;;;;;;20.60;12.15;;;9.10;99.90;;;9.28;80.00;102234.75;5071176;28;20120;-61
2022/01/16 07:44:47;;;;;;;23.95;13.07;;;9.20;99.90;;;9.28;79.92;102228.59;5071162;28;20041;-61
2022/01/16 07:47:15;;;;;;;19.90;12.63;;;9.20;99.90;;;9.21;80.32;102226.66;5071179;28;20088;-61
2022/01/16 07:49:45;;;;;;;18.45;11.77;;;9.10;99.90;;;9.21;80.36;102230.22;5070202;28;20494;-61
2022/01/16 07:52:16;;;;;;;24.58;12.82;;;9.20;99.90;;;9.24;80.92;102232.91;5071202;28;20045;-61
2022/01/16 07:54:48;;;;;;;22.95;13.00;;;9.10;99.90;;;9.17;81.04;102231.00;5071790;28;20059;-61
2022/01/16 07:57:18;;;;;;;17.67;11.70;;;9.10;99.90;;;9.18;81.12;102242.41;5071456;28;20094;-61
2022/01/16 07:59:47;;;;;;;17.98;11.75;;;9.10;99.90;;;9.22;81.06;102261.03;5071161;28;20321;-61
2022/01/16 08:02:15;;;;;;;18.20;11.70;;;9.10;99.90;;;9.21;81.39;102264.53;5071024;28;20123;-61
2022/01/16 08:04:45;;;;;;;35.13;20.58;;;9.10;99.90;;;9.07;83.07;102263.31;5071678;28;20135;-61
2022/01/16 08:07:14;;;;;;;;;;;8.90;99.90;;;9.00;83.86;102254.34;5071826;28;20095;-61
2022/01/16 08:09:43;;;;;;;53.35;28.88;;;8.90;99.90;;;8.90;84.35;102259.38;5071069;28;20333;-61
2022/01/16 08:12:14;;;;;;;58.88;33.25;;;8.70;99.90;;;8.78;85.66;102257.31;5071715;28;20128;-61
2022/01/16 08:14:42;;;;;;;;;;;8.60;99.90;;;8.73;86.41;102258.06;5070891;28;20592;-61
2022/01/16 08:17:10;;;;;;;64.45;34.53;;;8.60;99.90;;;8.61;86.90;102249.84;5071319;28;20010;-61
2022/01/16 08:19:39;;;;;;;66.55;35.75;;;8.40;99.90;;;8.60;87.57;102255.94;5071477;28;20052;-61
2022/01/16 08:22:10;;;;;;;75.45;38.45;;;8.40;99.90;;;8.49;87.98;102250.41;5071441;28;20040;-61
2022/01/16 08:24:39;;;;;;;68.65;37.90;;;8.30;99.90;;;8.45;88.46;102245.91;5074759;28;20118;-61
2022/01/16 08:27:08;;;;;;;75.85;39.35;;;8.20;99.90;;;8.41;89.09;102245.78;5074418;28;20123;-61
2022/01/16 08:29:36;;;;;;;75.95;38.67;;;8.20;99.90;;;8.40;89.51;102236.97;5074519;28;20044;-61
2022/01/16 08:32:06;;;;;;;76.80;40.88;;;8.20;99.90;;;8.39;89.47;102244.84;5074504;28;20398;-66
2022/01/16 08:34:35;;;;;;;80.05;42.65;;;8.20;99.90;;;8.40;90.04;102246.63;5074493;28;20475;-61
2022/01/16 08:37:04;;;;;;;75.13;40.80;;;8.20;99.90;;;8.39;90.39;102235.19;5074337;28;20044;-58
2022/01/16 08:39:34;;;;;;;82.47;42.38;;;8.20;99.90;;;8.32;90.26;102230.63;5074578;28;20048;-60
2022/01/16 08:42:03;;;;;;;80.88;41.58;;;8.20;99.90;;;8.46;90.11;102246.81;5074198;28;20067;-59
2022/01/16 08:44:31;;;;;;;84.55;43.40;;;8.20;99.90;;;8.43;90.28;102246.69;5074039;28;20041;-60
2022/01/16 08:47:00;;;;;;;82.43;43.40;;;8.20;99.90;;;8.39;90.16;102251.00;5073671;28;20159;-59
2022/01/16 08:49:28;;;;;;;84.30;44.30;;;8.20;99.90;;;8.29;90.36;102248.06;5072491;28;20036;-59
2022/01/16 08:51:58;;;;;;;81.00;43.13;;;8.10;99.90;;;8.33;90.79;102250.84;5073981;28;20080;-60
2022/01/16 08:54:26;;;;;;;84.97;44.90;;;8.10;99.90;;;8.25;91.16;102255.00;5073719;28;20076;-59
2022/01/16 08:56:56;;;;;;;86.30;43.60;;;8.10;99.90;;;7.57;91.26;102168.75;5073815;28;20406;-59
2022/01/16 08:59:24;;;;;;;93.88;45.90;;;8.00;99.90;;;7.83;91.55;102211.63;5073945;28;20402;-59
2022/01/16 09:01:53;;;;;;;89.88;45.53;;;8.00;99.90;;;8.17;91.67;102280.22;5073890;28;20044;-60
2022/01/16 09:04:21;;;;;;;89.78;45.88;;;8.00;99.90;;;8.18;91.93;102276.75;5073743;28;20181;-59
2022/01/16 09:06:49;;;;;;;94.35;46.78;;;8.00;99.90;;;8.27;92.15;102286.69;5073902;28;20060;-60
2022/01/16 09:09:18;;;;;;;98.35;48.67;;;8.00;99.90;;;8.20;91.52;102283.88;5073949;28;20125;-59
2022/01/16 09:11:47;;;;;;;101.13;49.17;;;8.00;99.90;;;8.02;92.29;102257.00;5073799;28;20135;-59
2022/01/16 09:14:17;;;;;;;96.90;48.53;;;8.00;99.90;;;8.08;92.30;102274.72;5073677;28;20455;-60
2022/01/16 09:16:46;;;;;;;96.22;49.00;;;7.90;99.90;;;8.12;92.47;102282.75;5074125;28;20370;-59
2022/01/16 09:19:14;;;;;;;95.20;48.03;;;7.90;99.90;;;8.14;93.03;102280.16;5074016;28;20052;-59
2022/01/16 09:21:42;;;;;;;93.70;49.45;;;7.90;99.90;;;8.11;92.93;102280.03;5073400;28;20079;-59
2022/01/16 09:24:11;;;;;;;107.65;52.35;;;7.90;99.90;;;8.12;92.91;102285.38;5073491;28;20037;-60
2022/01/16 09:26:39;;;;;;;104.55;50.15;;;7.90;99.90;;;8.15;92.70;102303.00;5073196;28;20076;-60
2022/01/16 09:29:08;;;;;;;106.07;49.33;;;7.90;99.90;;;8.13;93.33;102297.69;5073523;28;20048;-58
2022/01/16 09:31:37;;;;;;;100.85;49.70;;;7.90;99.90;;;8.14;93.23;102302.13;5073187;28;20049;-60
2022/01/16 09:34:06;;;;;;;102.30;49.97;;;7.90;99.90;;;8.01;93.21;102281.53;5072251;28;20045;-61
2022/01/16 09:36:35;;;;;;;100.07;50.58;;;7.90;99.90;;;8.12;93.62;102306.47;5073214;28;20071;-59
2022/01/16 09:39:03;;;;;;;109.88;49.67;;;7.90;99.90;;;8.07;93.70;102307.19;5073384;28;20068;-59
2022/01/16 09:41:32;;;;;;;108.50;50.92;;;7.90;99.90;;;8.09;93.29;102306.38;5073396;28;20048;-59
2022/01/16 09:44:01;;;;;;;103.32;50.20;;;7.90;99.90;;;7.99;93.50;102291.13;5073202;28;20049;-59
2022/01/16 09:46:30;;;;;;;117.90;52.60;;;8.00;99.90;;;8.04;94.20;102321.16;5072045;28;20059;-59
2022/01/16 09:49:00;;;;;;;119.65;53.05;;;7.90;99.90;;;7.98;94.19;102327.97;5072272;28;20048;-60
2022/01/16 09:51:30;;;;;;;115.95;53.78;;;7.80;99.90;;;8.05;94.49;102324.69;5073056;28;20048;-59
2022/01/16 09:53:59;;;;;;;117.70;53.35;;;7.80;99.90;;;7.93;94.15;102325.22;5073129;28;20152;-59
2022/01/16 09:56:28;;;;;;;119.22;54.78;;;7.80;99.90;;;7.67;94.62;102280.50;5072887;28;20076;-59
2022/01/16 09:58:56;;;;;;;114.80;53.10;;;7.80;99.90;;;8.04;94.67;102331.69;5072748;28;20456;-59
2022/01/16 10:01:24;;;;;;;114.50;52.13;;;7.80;99.90;;;7.88;94.93;102320.66;5073179;28;20075;-60
2022/01/16 10:03:53;;;;;;;119.15;53.20;;;7.80;99.90;;;7.95;95.22;102335.81;5072359;28;20037;-60
2022/01/16 10:06:24;;;;;;;120.32;55.53;;;7.70;99.90;;;7.99;95.09;102337.69;5072554;28;20053;-60
2022/01/16 10:08:55;;;;;;;120.28;53.55;;;7.80;99.90;;;7.99;95.30;102335.06;5072478;28;20044;-61
2022/01/16 10:11:30;;;;;;;127.85;54.92;;;7.80;99.90;;;8.06;95.66;102340.56;5072662;28;20106;-60
2022/01/16 10:14:02;;;;;;;119.13;54.28;;;7.80;99.90;;;8.15;95.52;102347.81;5072648;28;20105;-60
2022/01/16 10:16:35;;;;;;;134.70;56.08;;;7.90;99.90;;;8.11;95.65;102361.75;5071186;28;20053;-59
2022/01/16 10:19:06;;;;;;;134.55;56.00;;;8.00;99.90;;;8.17;96.23;102348.75;5072729;28;20041;-59
2022/01/16 10:21:39;;;;;;;129.52;55.38;;;8.00;99.90;;;8.16;96.82;102352.25;5072103;28;20040;-59
2022/01/16 10:24:24;;;;;;;134.18;55.75;;;8.00;99.90;;;8.09;97.07;102343.25;5072085;28;20528;-59
2022/01/16 10:27:19;;;;;;;136.13;56.63;;;8.00;99.90;;;8.16;97.55;102352.25;5072064;28;20098;-60
2022/01/16 10:29:51;;;;;;;130.35;56.45;;;8.00;99.90;;;8.12;97.57;102356.53;5071950;28;20040;-59
2022/01/16 10:32:23;;;;;;;136.73;58.67;;;8.00;99.90;;;8.21;97.61;102359.44;5072215;28;20055;-59
2022/01/16 10:34:54;;;;;;;130.20;56.65;;;8.00;99.90;;;8.27;97.27;102376.28;5071951;28;20040;-59
2022/01/16 10:37:27;;;;;;;133.00;57.33;;;8.10;99.90;;;8.26;97.24;102356.06;5087394;28;20223;-59
2022/01/16 10:40:07;;;;;;;124.80;55.33;;;8.10;99.90;;;8.33;96.65;102360.66;5071867;28;20402;-60
2022/01/16 10:42:36;;;;;;;119.15;54.15;;;8.10;99.90;;;8.49;96.50;102366.44;5070554;28;20063;-59
2022/01/16 10:45:09;;;;;;;114.93;53.50;;;8.20;99.90;;;8.47;96.47;102365.50;5071663;28;20123;-60
2022/01/16 10:47:43;;;;;;;126.32;54.40;;;8.30;99.90;;;8.59;96.59;102351.75;5072038;28;20067;-61
2022/01/16 10:50:16;;;;;;;124.38;54.95;;;8.40;99.90;;;8.56;95.75;102349.91;5072208;28;20516;-59
2022/01/16 10:52:58;;;;;;;114.25;55.72;;;8.40;99.90;;;8.65;95.88;102355.44;5071748;28;20040;-59
2022/01/16 10:55:36;;;;;;;111.22;51.60;;;8.40;99.90;;;8.58;95.84;102345.56;5071994;28;20044;-61
2022/01/16 10:58:09;;;;;;;109.00;50.10;;;8.40;99.90;;;8.55;95.48;102324.41;5072295;28;20477;-60